createdAt,value
2023-03-29T00:00:36.288Z,2.11
2023-03-29T00:03:04.172Z,2.26
2023-03-29T00:05:33.922Z,2.30
2023-03-29T00:08:04.081Z,2.30
2023-03-29T00:10:33.626Z,2.29
2023-03-29T00:13:00.954Z,2.31
2023-03-29T00:15:27.558Z,2.36
2023-03-29T00:17:54.086Z,2.38
2023-03-29T00:20:20.688Z,2.41
2023-03-29T00:22:47.210Z,2.35
2023-03-29T00:25:14.057Z,2.31
2023-03-29T00:27:41.082Z,2.32
2023-03-29T00:30:10.028Z,2.49
2023-03-29T00:32:37.063Z,2.39
2023-03-29T00:35:05.984Z,2.38
2023-03-29T00:37:32.906Z,2.36
2023-03-29T00:39:59.685Z,2.43
2023-03-29T00:42:26.775Z,2.43
2023-03-29T00:45:05.278Z,2.42
2023-03-29T00:47:43.077Z,2.41
2023-03-29T00:50:29.627Z,2.33
2023-03-29T00:53:12.433Z,2.46
2023-03-29T00:55:44.266Z,2.36
2023-03-29T00:58:13.878Z,2.19
2023-03-29T01:01:04.323Z,2.30
2023-03-29T01:03:41.516Z,2.18
2023-03-29T01:06:10.585Z,2.38
2023-03-29T01:08:45.468Z,2.23
2023-03-29T01:11:22.194Z,2.32
2023-03-29T01:14:08.794Z,2.33
2023-03-29T01:16:38.463Z,2.22
2023-03-29T01:19:09.158Z,2.22
2023-03-29T01:21:43.625Z,2.32
2023-03-29T01:24:32.206Z,2.33
2023-03-29T01:27:22.839Z,2.26
2023-03-29T01:29:57.178Z,2.21
2023-03-29T01:32:34.806Z,2.30
2023-03-29T01:35:13.072Z,2.26
2023-03-29T01:37:46.067Z,2.18
2023-03-29T01:40:12.669Z,2.22
2023-03-29T01:43:03.396Z,2.32
2023-03-29T01:45:51.731Z,2.31
2023-03-29T01:48:30.069Z,2.33
2023-03-29T01:51:23.996Z,2.31
2023-03-29T01:54:14.513Z,2.34
2023-03-29T01:56:43.795Z,2.34
2023-03-29T01:59:17.626Z,2.30
2023-03-29T02:01:49.733Z,2.35
2023-03-29T02:04:29.027Z,2.29
2023-03-29T02:06:59.422Z,2.32
2023-03-29T02:09:28.702Z,2.11
2023-03-29T02:11:59.183Z,2.18
2023-03-29T02:14:26.174Z,2.23
2023-03-29T02:16:52.669Z,2.22
2023-03-29T02:19:20.516Z,2.35
2023-03-29T02:22:01.466Z,2.23
2023-03-29T02:24:32.272Z,2.27
2023-03-29T02:27:00.125Z,2.18
2023-03-29T02:29:27.297Z,2.15
2023-03-29T02:32:04.674Z,2.32
2023-03-29T02:34:38.868Z,2.35
2023-03-29T02:37:15.626Z,2.32
2023-03-29T02:39:42.783Z,2.21
2023-03-29T02:42:10.911Z,2.19
2023-03-29T02:44:41.942Z,2.09
2023-03-29T02:47:17.272Z,2.26
2023-03-29T02:49:44.192Z,2.34
2023-03-29T02:52:15.999Z,2.13
2023-03-29T02:54:45.913Z,2.37
2023-03-29T02:57:12.444Z,2.29
2023-03-29T02:59:40.816Z,2.19
2023-03-29T03:02:07.374Z,2.39
2023-03-29T03:04:35.479Z,2.38
2023-03-29T03:07:04.713Z,2.32
2023-03-29T03:09:31.776Z,2.03
2023-03-29T03:11:58.512Z,2.09
2023-03-29T03:14:25.258Z,1.96
2023-03-29T03:16:52.785Z,1.92
2023-03-29T03:19:19.883Z,2.15
2023-03-29T03:21:46.968Z,2.28
2023-03-29T03:24:14.384Z,2.08
2023-03-29T03:26:40.892Z,2.25
2023-03-29T03:29:07.624Z,2.22
2023-03-29T03:31:53.911Z,2.28
2023-03-29T03:34:39.294Z,1.80
2023-03-29T03:37:06.041Z,2.16
2023-03-29T03:39:34.297Z,2.05
2023-03-29T03:42:02.549Z,2.14
2023-03-29T03:44:29.138Z,2.25
2023-03-29T03:47:14.594Z,1.95
2023-03-29T03:49:42.159Z,2.08
2023-03-29T03:52:08.874Z,2.14
2023-03-29T03:54:35.358Z,2.18
2023-03-29T03:57:24.632Z,2.00
2023-03-29T03:59:52.880Z,1.83
2023-03-29T04:02:39.207Z,2.03
2023-03-29T04:05:06.339Z,2.16
2023-03-29T04:07:36.420Z,1.77
2023-03-29T04:10:31.919Z,1.99
2023-03-29T04:13:12.015Z,2.00
2023-03-29T04:16:00.881Z,1.99
2023-03-29T04:18:28.463Z,2.01
2023-03-29T04:20:57.485Z,1.81
2023-03-29T04:23:25.712Z,2.05
2023-03-29T04:25:54.233Z,2.02
2023-03-29T04:28:52.850Z,1.85
2023-03-29T04:31:32.274Z,2.10
2023-03-29T04:34:13.122Z,1.63
2023-03-29T04:36:39.717Z,2.02
2023-03-29T04:39:12.686Z,1.98
2023-03-29T04:41:40.505Z,1.98
2023-03-29T04:44:18.852Z,2.15
2023-03-29T04:46:45.555Z,2.02
2023-03-29T04:49:30.404Z,2.13
2023-03-29T04:51:58.156Z,2.04
2023-03-29T04:54:27.829Z,2.18
2023-03-29T04:57:01.457Z,2.12
2023-03-29T04:59:36.917Z,2.29
2023-03-29T05:02:12.818Z,2.27
2023-03-29T05:04:42.373Z,2.15
2023-03-29T05:07:15.531Z,2.35
2023-03-29T05:09:42.656Z,2.17
2023-03-29T05:12:09.993Z,2.29
2023-03-29T05:14:51.199Z,2.30
2023-03-29T05:17:18.084Z,2.42
2023-03-29T05:19:45.907Z,2.45
2023-03-29T05:22:14.164Z,2.25
2023-03-29T05:24:42.086Z,2.33
2023-03-29T05:27:17.194Z,2.47
2023-03-29T05:29:50.034Z,2.54
2023-03-29T05:32:38.057Z,2.47
2023-03-29T05:35:06.690Z,2.44
2023-03-29T05:37:34.365Z,2.64
2023-03-29T05:40:09.953Z,2.73
2023-03-29T05:42:53.207Z,2.55
2023-03-29T05:45:20.264Z,2.77
2023-03-29T05:47:46.803Z,2.73
2023-03-29T05:50:13.634Z,2.63
2023-03-29T05:52:41.135Z,2.81
2023-03-29T05:55:08.044Z,2.89
2023-03-29T05:57:38.088Z,2.86
2023-03-29T06:00:25.615Z,2.88
2023-03-29T06:03:10.093Z,2.77
2023-03-29T06:05:49.978Z,3.09
2023-03-29T06:08:17.104Z,3.08
2023-03-29T06:11:03.091Z,3.05
2023-03-29T06:13:53.852Z,2.93
2023-03-29T06:16:20.319Z,3.04
2023-03-29T06:18:47.895Z,3.16
2023-03-29T06:21:14.827Z,3.42
2023-03-29T06:23:41.847Z,3.09
2023-03-29T06:26:10.556Z,3.42
2023-03-29T06:28:37.687Z,3.31
2023-03-29T06:31:04.501Z,3.46
2023-03-29T06:33:37.756Z,3.21
2023-03-29T06:36:16.155Z,3.18
2023-03-29T06:38:45.584Z,3.34
2023-03-29T06:41:35.307Z,3.33
2023-03-29T06:44:07.439Z,3.35
2023-03-29T06:46:38.734Z,3.44
2023-03-29T06:49:07.344Z,3.50
2023-03-29T06:51:42.719Z,3.73
2023-03-29T06:54:09.276Z,3.66
2023-03-29T06:56:39.594Z,3.65
2023-03-29T06:59:11.795Z,3.63
2023-03-29T07:01:47.262Z,3.73
2023-03-29T07:04:22.276Z,3.53
2023-03-29T07:07:20.585Z,3.63
2023-03-29T07:09:55.235Z,3.77
2023-03-29T07:12:40.848Z,3.95
2023-03-29T07:15:09.534Z,3.91
2023-03-29T07:18:04.696Z,4.34
2023-03-29T07:20:33.731Z,4.19
2023-03-29T07:23:06.830Z,4.34
2023-03-29T07:25:34.117Z,4.35
2023-03-29T07:28:01.482Z,4.64
2023-03-29T07:30:32.019Z,4.78
2023-03-29T07:33:12.313Z,4.78
2023-03-29T07:35:47.904Z,4.97
2023-03-29T07:38:15.595Z,5.33
2023-03-29T07:40:47.344Z,5.04
2023-03-29T07:43:32.355Z,5.56
2023-03-29T07:46:04.817Z,5.75
2023-03-29T07:48:33.754Z,6.16
2023-03-29T07:51:05.186Z,6.35
2023-03-29T07:53:43.007Z,6.84
2023-03-29T07:56:27.640Z,7.14
2023-03-29T07:59:17.096Z,7.21
2023-03-29T08:01:47.653Z,6.97
2023-03-29T08:04:25.609Z,7.23
2023-03-29T08:07:10.992Z,6.85
2023-03-29T08:09:57.538Z,6.58
2023-03-29T08:12:38.142Z,7.09
2023-03-29T08:15:05.792Z,6.92
2023-03-29T08:17:36.184Z,6.61
2023-03-29T08:20:05.952Z,6.86
2023-03-29T08:22:33.831Z,7.00
2023-03-29T08:25:27.904Z,6.92
2023-03-29T08:27:54.637Z,6.70
2023-03-29T08:30:35.197Z,6.69
2023-03-29T08:33:02.846Z,6.82
2023-03-29T08:35:29.519Z,7.11
2023-03-29T08:38:08.714Z,6.75
2023-03-29T08:40:35.266Z,7.39
2023-03-29T08:43:39.189Z,7.92
2023-03-29T08:46:47.136Z,7.98
2023-03-29T08:49:22.277Z,7.27
2023-03-29T08:51:54.754Z,7.86
2023-03-29T08:54:25.419Z,8.07
2023-03-29T08:57:32.579Z,7.90
2023-03-29T09:00:20.452Z,8.05
2023-03-29T09:02:49.347Z,8.27
2023-03-29T09:05:26.778Z,8.94
2023-03-29T09:08:16.353Z,9.21
2023-03-29T09:11:08.392Z,9.23
2023-03-29T09:13:42.122Z,9.10
2023-03-29T09:16:23.828Z,9.57
2023-03-29T09:19:39.842Z,9.72
2023-03-29T09:22:45.897Z,9.40
2023-03-29T09:25:21.346Z,9.47
2023-03-29T09:27:56.977Z,9.53
2023-03-29T09:31:01.909Z,9.57
2023-03-29T09:33:43.758Z,9.53
2023-03-29T09:36:34.644Z,9.82
2023-03-29T09:39:02.376Z,9.42
2023-03-29T09:41:41.543Z,9.49
2023-03-29T09:44:23.913Z,9.71
2023-03-29T09:47:16.810Z,9.93
2023-03-29T09:49:48.632Z,10.00
2023-03-29T09:52:18.175Z,10.05
2023-03-29T09:54:54.055Z,10.05
2023-03-29T09:57:29.268Z,10.26
2023-03-29T09:59:57.598Z,10.30
2023-03-29T10:02:24.203Z,9.71
2023-03-29T10:05:03.811Z,9.78
2023-03-29T10:07:41.238Z,10.55
2023-03-29T10:10:10.533Z,10.74
2023-03-29T10:12:37.414Z,10.94
2023-03-29T10:15:05.615Z,11.08
2023-03-29T10:17:40.815Z,11.08
2023-03-29T10:20:13.815Z,11.17
2023-03-29T10:22:48.244Z,11.59
2023-03-29T10:25:18.352Z,11.35
2023-03-29T10:27:47.521Z,11.60
2023-03-29T10:30:23.856Z,11.98
2023-03-29T10:33:00.337Z,12.60
2023-03-29T10:35:38.117Z,12.59
2023-03-29T10:38:07.853Z,12.68
2023-03-29T10:40:35.660Z,12.81
2023-03-29T10:43:12.468Z,12.80
2023-03-29T10:45:40.183Z,12.75
2023-03-29T10:48:10.074Z,12.76
2023-03-29T10:50:38.102Z,12.53
2023-03-29T10:53:24.626Z,12.55
2023-03-29T10:56:14.559Z,13.08
2023-03-29T10:58:59.526Z,12.67
2023-03-29T11:01:34.105Z,12.67
2023-03-29T11:04:15.973Z,12.82
2023-03-29T11:06:52.556Z,13.30
2023-03-29T11:09:37.642Z,12.76
2023-03-29T11:12:16.347Z,13.06
2023-03-29T11:15:30.417Z,12.91
2023-03-29T11:18:41.560Z,12.46
2023-03-29T11:21:23.424Z,12.78
2023-03-29T11:24:25.619Z,12.58
2023-03-29T11:27:17.075Z,12.46
2023-03-29T11:30:03.651Z,12.50
2023-03-29T11:32:49.154Z,13.11
2023-03-29T11:35:24.399Z,12.64
2023-03-29T11:38:06.086Z,12.72
2023-03-29T11:40:53.502Z,12.53
2023-03-29T11:43:37.771Z,13.04
2023-03-29T11:46:04.503Z,13.33
2023-03-29T11:48:41.186Z,12.88
2023-03-29T11:51:28.541Z,13.01
2023-03-29T11:54:16.529Z,13.63
2023-03-29T11:56:59.006Z,13.64
2023-03-29T11:59:52.130Z,13.81
2023-03-29T12:02:32.540Z,13.84
2023-03-29T12:05:05.022Z,13.68
2023-03-29T12:07:41.664Z,13.98
2023-03-29T12:10:13.944Z,13.82
2023-03-29T12:12:55.237Z,13.84
2023-03-29T12:15:26.148Z,13.69
2023-03-29T12:18:37.892Z,14.00
2023-03-29T12:21:12.144Z,13.28
2023-03-29T12:23:41.660Z,13.75
2023-03-29T12:26:20.407Z,13.77
2023-03-29T12:29:08.299Z,13.91
2023-03-29T12:32:13.135Z,13.67
2023-03-29T12:35:22.195Z,14.02
2023-03-29T12:38:22.872Z,13.71
2023-03-29T12:41:19.829Z,14.10
2023-03-29T12:44:05.137Z,13.89
2023-03-29T12:46:54.720Z,13.84
2023-03-29T12:49:29.501Z,13.70
2023-03-29T12:51:59.012Z,13.75
2023-03-29T12:54:30.672Z,14.15
2023-03-29T12:57:03.349Z,13.96
2023-03-29T12:59:45.178Z,13.87
2023-03-29T13:02:14.518Z,14.09
2023-03-29T13:04:56.704Z,14.07
2023-03-29T13:07:23.303Z,13.74
2023-03-29T13:09:51.172Z,13.91
2023-03-29T13:12:35.995Z,13.83
2023-03-29T13:15:06.647Z,13.86
2023-03-29T13:18:16.098Z,13.75
2023-03-29T13:20:51.375Z,13.64
2023-03-29T13:23:51.468Z,14.21
2023-03-29T13:26:40.826Z,14.32
2023-03-29T13:29:29.748Z,14.42
2023-03-29T13:32:04.415Z,14.46
2023-03-29T13:34:53.757Z,14.38
2023-03-29T13:37:57.637Z,14.67
2023-03-29T13:40:53.777Z,14.64
2023-03-29T13:43:32.272Z,14.82
2023-03-29T13:45:58.721Z,14.53
2023-03-29T13:48:46.887Z,14.38
2023-03-29T13:51:13.268Z,14.44
2023-03-29T13:54:01.410Z,14.32
2023-03-29T13:56:58.961Z,14.22
2023-03-29T13:59:36.180Z,13.81
2023-03-29T14:02:04.569Z,13.84
2023-03-29T14:04:37.813Z,13.99
2023-03-29T14:07:06.826Z,14.05
2023-03-29T14:09:38.950Z,14.19
2023-03-29T14:12:07.951Z,13.88
2023-03-29T14:14:35.178Z,13.89
2023-03-29T14:17:02.683Z,14.28
2023-03-29T14:19:32.950Z,14.29
2023-03-29T14:22:01.920Z,14.24
2023-03-29T14:24:38.654Z,14.39
2023-03-29T14:27:07.540Z,14.98
2023-03-29T14:29:35.451Z,14.56
2023-03-29T14:32:10.655Z,14.67
2023-03-29T14:34:37.641Z,14.54
2023-03-29T14:37:04.612Z,14.52
2023-03-29T14:39:34.204Z,15.19
2023-03-29T14:42:01.661Z,14.73
2023-03-29T14:44:34.528Z,14.67
2023-03-29T14:47:02.898Z,14.23
2023-03-29T14:49:29.864Z,14.27
2023-03-29T14:51:57.171Z,13.81
2023-03-29T14:54:29.660Z,14.22
2023-03-29T14:56:56.445Z,13.77
2023-03-29T14:59:38.030Z,13.97
2023-03-29T15:02:21.861Z,14.21
2023-03-29T15:04:58.741Z,14.19
2023-03-29T15:07:29.484Z,14.24
2023-03-29T15:09:58.533Z,14.26
2023-03-29T15:12:28.758Z,14.18
2023-03-29T15:14:55.365Z,13.90
2023-03-29T15:17:42.640Z,14.15
2023-03-29T15:20:24.005Z,14.19
2023-03-29T15:23:01.434Z,14.28
2023-03-29T15:25:34.319Z,14.04
2023-03-29T15:28:01.860Z,14.01
2023-03-29T15:30:34.457Z,13.74
2023-03-29T15:33:21.293Z,13.67
2023-03-29T15:35:51.829Z,13.73
2023-03-29T15:38:23.310Z,13.60
2023-03-29T15:40:51.839Z,13.56
2023-03-29T15:43:21.229Z,13.40
2023-03-29T15:45:47.943Z,13.37
2023-03-29T15:48:20.421Z,13.71
2023-03-29T15:50:46.927Z,13.55
2023-03-29T15:53:15.753Z,13.65
2023-03-29T15:55:45.985Z,13.64
2023-03-29T15:58:15.130Z,13.72
2023-03-29T16:00:46.522Z,13.65
2023-03-29T16:03:15.959Z,13.69
2023-03-29T16:05:43.345Z,13.54
2023-03-29T16:08:11.459Z,13.69
2023-03-29T16:10:38.463Z,13.50
2023-03-29T16:13:05.044Z,13.47
2023-03-29T16:15:32.132Z,13.49
2023-03-29T16:17:58.659Z,13.37
2023-03-29T16:20:25.464Z,13.16
2023-03-29T16:22:54.120Z,12.80
2023-03-29T16:25:22.811Z,12.79
2023-03-29T16:27:50.780Z,12.81
2023-03-29T16:30:17.302Z,12.92
2023-03-29T16:32:43.855Z,12.84
2023-03-29T16:35:19.120Z,12.86
2023-03-29T16:37:45.608Z,12.72
2023-03-29T16:40:12.526Z,12.73
2023-03-29T16:42:39.763Z,12.72
2023-03-29T16:45:07.510Z,12.47
2023-03-29T16:47:34.043Z,12.30
2023-03-29T16:50:00.783Z,12.54
2023-03-29T16:52:27.615Z,12.46
2023-03-29T16:54:54.007Z,12.59
2023-03-29T16:57:20.445Z,12.55
2023-03-29T16:59:47.724Z,12.48
2023-03-29T17:02:14.178Z,12.30
2023-03-29T17:04:40.672Z,12.09
2023-03-29T17:07:07.142Z,12.22
2023-03-29T17:09:33.595Z,12.24
2023-03-29T17:12:00.155Z,11.93
2023-03-29T17:14:26.782Z,12.35
2023-03-29T17:16:53.328Z,12.53
2023-03-29T17:19:19.845Z,12.13
2023-03-29T17:21:46.289Z,12.26
2023-03-29T17:24:12.882Z,12.10
2023-03-29T17:26:39.827Z,11.98
2023-03-29T17:29:06.332Z,11.81
2023-03-29T17:31:34.804Z,12.37
2023-03-29T17:34:01.559Z,11.89
2023-03-29T17:36:28.875Z,12.01
2023-03-29T17:38:55.563Z,11.83
2023-03-29T17:41:22.887Z,11.97
2023-03-29T17:43:50.889Z,11.83
2023-03-29T17:46:18.049Z,11.75
2023-03-29T17:48:46.218Z,11.62
2023-03-29T17:51:12.649Z,11.63
2023-03-29T17:53:39.134Z,11.61
2023-03-29T17:56:06.995Z,11.67
2023-03-29T17:58:33.900Z,11.64
2023-03-29T18:01:07.187Z,11.59
2023-03-29T18:03:33.717Z,11.47
2023-03-29T18:06:00.338Z,11.68
2023-03-29T18:08:28.289Z,11.68
2023-03-29T18:10:54.740Z,11.50
2023-03-29T18:13:25.504Z,11.63
2023-03-29T18:15:56.633Z,11.61
2023-03-29T18:18:23.170Z,11.48
2023-03-29T18:20:49.681Z,11.53
2023-03-29T18:23:16.237Z,11.17
2023-03-29T18:25:42.601Z,11.35
2023-03-29T18:28:09.192Z,11.11
2023-03-29T18:30:35.762Z,11.15
2023-03-29T18:33:02.239Z,11.24
2023-03-29T18:35:28.788Z,11.08
2023-03-29T18:37:55.204Z,11.05
2023-03-29T18:40:24.637Z,10.76
2023-03-29T18:42:51.939Z,10.92
2023-03-29T18:45:18.999Z,10.93
2023-03-29T18:47:45.532Z,11.06
2023-03-29T18:50:13.212Z,11.03
2023-03-29T18:52:40.060Z,10.94
2023-03-29T18:55:07.248Z,10.98
2023-03-29T18:57:33.737Z,10.74
2023-03-29T19:00:00.394Z,10.84
2023-03-29T19:02:26.937Z,10.64
2023-03-29T19:04:53.355Z,10.74
2023-03-29T19:07:20.997Z,10.57
2023-03-29T19:09:47.412Z,10.68
2023-03-29T19:12:13.861Z,10.50
2023-03-29T19:14:40.412Z,10.60
2023-03-29T19:17:06.778Z,10.61
2023-03-29T19:19:33.273Z,10.50
2023-03-29T19:22:00.727Z,10.39
2023-03-29T19:24:27.752Z,10.40
2023-03-29T19:26:54.473Z,10.31
2023-03-29T19:29:20.982Z,10.26
2023-03-29T19:31:47.594Z,10.27
2023-03-29T19:34:14.212Z,10.21
2023-03-29T19:36:40.610Z,10.23
2023-03-29T19:39:07.195Z,9.91
2023-03-29T19:41:33.718Z,10.12
2023-03-29T19:44:00.376Z,10.06
2023-03-29T19:46:28.790Z,9.87
2023-03-29T19:48:56.218Z,9.78
2023-03-29T19:51:23.578Z,10.03
2023-03-29T19:53:50.244Z,9.79
2023-03-29T19:56:17.249Z,9.82
2023-03-29T19:58:43.735Z,10.00
2023-03-29T20:01:10.164Z,10.05
2023-03-29T20:03:36.774Z,9.98
2023-03-29T20:06:03.712Z,9.97
2023-03-29T20:08:30.519Z,9.78
2023-03-29T20:11:03.294Z,9.80
2023-03-29T20:13:38.358Z,9.76
2023-03-29T20:16:15.007Z,9.51
2023-03-29T20:18:44.550Z,9.65
2023-03-29T20:21:18.724Z,9.58
2023-03-29T20:23:45.890Z,9.49
2023-03-29T20:26:12.407Z,9.34
2023-03-29T20:28:38.835Z,9.34
2023-03-29T20:31:08.006Z,9.31
2023-03-29T20:33:34.473Z,9.18
2023-03-29T20:36:01.053Z,9.19
2023-03-29T20:38:27.833Z,9.11
2023-03-29T20:40:55.234Z,9.02
2023-03-29T20:43:21.824Z,9.26
2023-03-29T20:45:53.801Z,9.22
2023-03-29T20:48:23.239Z,9.04
2023-03-29T20:50:50.590Z,9.06
2023-03-29T20:53:18.393Z,8.94
2023-03-29T20:55:45.006Z,9.13
2023-03-29T20:58:11.531Z,9.13
2023-03-29T21:00:38.283Z,8.98
2023-03-29T21:03:05.035Z,9.10
2023-03-29T21:05:33.380Z,9.12
2023-03-29T21:07:59.987Z,8.95
2023-03-29T21:10:27.441Z,8.96
2023-03-29T21:12:54.411Z,8.82
2023-03-29T21:15:20.948Z,8.81
2023-03-29T21:17:47.791Z,8.83
2023-03-29T21:20:15.185Z,8.83
2023-03-29T21:22:45.266Z,8.85
2023-03-29T21:25:15.503Z,8.77
2023-03-29T21:27:42.063Z,8.83
2023-03-29T21:30:08.863Z,8.85
2023-03-29T21:32:35.707Z,8.71
2023-03-29T21:35:02.232Z,8.56
2023-03-29T21:37:28.658Z,8.78
2023-03-29T21:39:55.232Z,8.57
2023-03-29T21:42:21.598Z,8.74
2023-03-29T21:44:48.059Z,8.72
2023-03-29T21:47:14.430Z,8.68
2023-03-29T21:49:41.180Z,8.70
2023-03-29T21:52:07.678Z,8.64
2023-03-29T21:54:34.061Z,8.76
2023-03-29T21:57:00.678Z,8.37
2023-03-29T21:59:27.899Z,8.49
2023-03-29T22:17:20.661Z,7.99
2023-03-29T22:19:47.544Z,8.07
2023-03-29T22:22:14.665Z,8.15
2023-03-29T22:24:41.948Z,8.26
2023-03-29T22:27:08.578Z,8.16
2023-03-29T22:29:35.116Z,8.21
2023-03-29T22:32:01.829Z,8.21
2023-03-29T22:34:28.377Z,8.24
2023-03-29T22:36:54.808Z,8.23
2023-03-29T22:39:21.398Z,8.15
2023-03-29T22:41:47.952Z,8.18
2023-03-29T22:44:14.442Z,8.27
2023-03-29T22:46:41.308Z,8.34
2023-03-29T22:49:07.829Z,8.35
2023-03-29T22:51:34.253Z,8.23
2023-03-29T22:54:01.021Z,8.15
2023-03-29T22:56:27.555Z,8.17
2023-03-29T22:58:54.152Z,8.16
2023-03-29T23:01:20.682Z,8.23
2023-03-29T23:03:47.550Z,8.28
2023-03-29T23:06:14.100Z,8.14
2023-03-29T23:08:40.588Z,8.28
2023-03-29T23:11:07.564Z,8.21
2023-03-29T23:13:35.152Z,8.26
2023-03-29T23:16:03.900Z,8.28
2023-03-29T23:18:34.826Z,8.17
2023-03-29T23:21:02.440Z,8.23
2023-03-29T23:23:29.156Z,8.15
2023-03-29T23:25:55.976Z,8.15
2023-03-29T23:28:26.027Z,8.18
2023-03-29T23:30:57.899Z,8.16
2023-03-29T23:33:25.693Z,8.22
2023-03-29T23:35:53.366Z,8.13
2023-03-29T23:38:20.440Z,8.25
2023-03-29T23:41:00.356Z,8.25
2023-03-29T23:43:31.779Z,8.20
2023-03-29T23:46:17.582Z,8.24
2023-03-29T23:48:46.159Z,8.28
2023-03-29T23:51:12.966Z,8.11
2023-03-29T23:53:39.502Z,8.20
2023-03-29T23:56:06.259Z,8.17
2023-03-29T23:58:35.938Z,8.11
